createdAt,value
2019-06-07T00:00:29.510Z,1010.03
2019-06-07T00:00:48.528Z,1010.08
2019-06-07T00:01:29.099Z,1010.07
2019-06-07T00:02:10.657Z,1010.05
2019-06-07T00:02:50.236Z,1010.08
2019-06-07T00:03:30.823Z,1010.09
2019-06-07T00:04:13.204Z,1010.06
2019-06-07T00:04:51.937Z,1010.06
2019-06-07T00:05:32.501Z,1010.07
2019-06-07T00:06:16.879Z,1010
2019-06-07T00:06:53.627Z,1010.04
2019-06-07T00:07:34.209Z,1010.04
2019-06-07T00:08:22.378Z,1010.08
2019-06-07T00:08:55.417Z,1010.08
2019-06-07T00:09:35.950Z,1010.12
2019-06-07T00:10:34.856Z,1010.13
2019-06-07T00:10:57.074Z,1010.14
2019-06-07T00:11:37.636Z,1010.14
2019-06-07T00:12:21.363Z,1010.14
2019-06-07T00:12:58.767Z,1010.12
2019-06-07T00:13:39.326Z,1010.12
2019-06-07T00:14:21.062Z,1010.08
2019-06-07T00:15:00.636Z,1010.12
2019-06-07T00:15:41.221Z,1010.11
2019-06-07T00:16:23.100Z,1010.11
2019-06-07T00:17:02.342Z,1010.12
2019-06-07T00:17:42.899Z,1010.07
2019-06-07T00:18:25.787Z,1010.07
2019-06-07T00:19:04.037Z,1010.02
2019-06-07T00:19:44.617Z,1010.02
2019-06-07T00:20:25.200Z,1010.01
2019-06-07T00:21:05.756Z,1009.97
2019-06-07T00:22:14.127Z,1010.04
2019-06-07T00:22:32.750Z,1010.08
2019-06-07T00:23:08.601Z,1010.08
2019-06-07T00:23:48.029Z,1010.07
2019-06-07T00:24:28.609Z,1010.08
2019-06-07T00:25:12.215Z,1010.1
2019-06-07T00:25:49.771Z,1010.1
2019-06-07T00:26:30.344Z,1010.09
2019-06-07T00:27:15.122Z,1010.1
2019-06-07T00:27:54.405Z,1010.1
2019-06-07T00:28:34.972Z,1010.11
2019-06-07T00:29:18.530Z,1010.11
2019-06-07T00:29:56.085Z,1010.11
2019-06-07T00:30:50.447Z,1010.08
2019-06-07T00:31:21.978Z,1010.05
2019-06-07T00:31:57.772Z,1010.06
2019-06-07T00:32:38.379Z,1010.04
2019-06-07T00:33:23.489Z,1010.05
2019-06-07T00:33:59.520Z,1010.05
2019-06-07T00:34:40.204Z,1010.04
2019-06-07T00:35:22.430Z,1010.04
2019-06-07T00:36:01.366Z,1010.05
2019-06-07T00:36:41.934Z,1010.08
2019-06-07T00:37:25.024Z,1010.09
2019-06-07T00:38:03.078Z,1010.06
2019-06-07T00:38:43.654Z,1010.07
2019-06-07T00:39:25.777Z,1010.03
2019-06-07T00:40:13.817Z,1010.03
2019-06-07T00:40:45.438Z,1010.02
2019-06-07T00:41:25.997Z,1010.02
2019-06-07T00:42:06.552Z,1010.01
2019-06-07T00:42:47.113Z,1010.02
2019-06-07T00:43:28.486Z,1010.03
2019-06-07T00:44:08.293Z,1010
2019-06-07T00:44:48.868Z,1010.02
2019-06-07T00:45:29.443Z,1010.01
2019-06-07T00:46:13.220Z,1010.03
2019-06-07T00:46:50.562Z,1009.97
2019-06-07T00:47:31.132Z,1010.02
2019-06-07T00:48:19.390Z,1009.97
2019-06-07T00:48:52.408Z,1009.96
2019-06-07T00:49:40.860Z,1009.93
2019-06-07T00:50:13.873Z,1009.97
2019-06-07T00:50:54.129Z,1009.95
2019-06-07T00:51:49.867Z,1009.95
2019-06-07T00:52:58.421Z,1010.01
2019-06-07T00:53:14.378Z,1009.97
2019-06-07T00:53:36.399Z,1009.97
2019-06-07T00:54:18.519Z,1010.01
2019-06-07T00:54:57.542Z,1009.98
2019-06-07T00:55:38.113Z,1009.96
2019-06-07T00:56:20.579Z,1009.96
2019-06-07T00:56:59.241Z,1010
2019-06-07T00:57:39.792Z,1009.97
2019-06-07T00:58:24.201Z,1010.01
2019-06-07T00:59:11.017Z,1010
2019-06-07T00:59:41.456Z,1010.02
2019-06-07T01:00:24.955Z,1010
2019-06-07T01:01:02.578Z,1010
2019-06-07T01:04:19.294Z,1010.04
2019-06-07T01:04:57.103Z,1009.97
2019-06-07T01:05:37.651Z,1009.98
2019-06-07T01:06:21.766Z,1010.02
2019-06-07T01:06:58.828Z,1010.02
2019-06-07T01:07:39.392Z,1010.02
2019-06-07T01:08:22.606Z,1010.04
2019-06-07T01:09:00.721Z,1010.1
2019-06-07T01:09:41.294Z,1010.04
2019-06-07T01:10:46.941Z,1010.06
2019-06-07T01:11:02.515Z,1010.03
2019-06-07T01:11:43.078Z,1010.02
2019-06-07T01:12:24.466Z,1010.05
2019-06-07T01:13:04.152Z,1010
2019-06-07T01:13:44.710Z,1010
2019-06-07T01:14:28.279Z,1009.99
2019-06-07T01:15:05.833Z,1010.03
2019-06-07T01:15:46.420Z,1010.01
2019-06-07T01:16:26.955Z,1009.97
2019-06-07T01:17:23.222Z,1009.99
2019-06-07T01:18:25.792Z,1009.96
2019-06-07T01:18:40.843Z,1009.93
2019-06-07T01:19:09.522Z,1009.96
2019-06-07T01:19:50.085Z,1009.99
2019-06-07T01:20:30.654Z,1010.03
2019-06-07T01:21:11.200Z,1010.09
2019-06-07T01:21:51.772Z,1010.06
2019-06-07T01:22:32.338Z,1010.05
2019-06-07T01:23:54.161Z,1010.04
2019-06-07T01:24:09.311Z,1010.07
2019-06-07T01:24:34.012Z,1010.01
2019-06-07T01:25:15.732Z,1009.97
2019-06-07T01:25:55.149Z,1009.99
2019-06-07T01:26:35.715Z,1009.94
2019-06-07T01:27:16.986Z,1009.93
2019-06-07T01:27:56.852Z,1009.96
2019-06-07T01:28:37.420Z,1009.9
2019-06-07T01:29:19.535Z,1009.94
2019-06-07T01:29:58.587Z,1009.86
2019-06-07T01:30:39.159Z,1009.91
2019-06-07T01:31:21.123Z,1009.96
2019-06-07T01:32:00.299Z,1009.96
2019-06-07T01:32:40.850Z,1009.99
2019-06-07T01:33:23.473Z,1010
2019-06-07T01:34:01.975Z,1009.98
2019-06-07T01:34:42.542Z,1009.99
2019-06-07T01:35:23.808Z,1009.99
2019-06-07T01:36:03.682Z,1009.97
2019-06-07T01:36:44.243Z,1009.98
2019-06-07T01:37:27.524Z,1009.96
2019-06-07T01:38:05.427Z,1009.99
2019-06-07T01:38:46.734Z,1009.96
2019-06-07T01:39:29.675Z,1009.95
2019-06-07T01:40:07.869Z,1010.01
2019-06-07T01:40:48.413Z,1010.02
2019-06-07T01:41:30.661Z,1010.04
2019-06-07T01:42:09.545Z,1010
2019-06-07T01:42:50.116Z,1010
2019-06-07T01:43:31.212Z,1009.98
2019-06-07T01:44:11.304Z,1009.98
2019-06-07T01:44:51.879Z,1009.91
2019-06-07T01:45:32.477Z,1009.88
2019-06-07T01:46:13.048Z,1009.87
2019-06-07T01:46:53.606Z,1009.86
2019-06-07T01:47:34.176Z,1009.82
2019-06-07T01:48:17.650Z,1009.83
2019-06-07T01:48:55.364Z,1009.84
2019-06-07T01:49:35.969Z,1009.82
2019-06-07T01:50:16.993Z,1009.79
2019-06-07T01:50:57.090Z,1009.78
2019-06-07T01:51:37.668Z,1009.79
2019-06-07T01:52:19.511Z,1009.8
2019-06-07T01:52:58.968Z,1009.8
2019-06-07T01:53:39.521Z,1009.78
2019-06-07T01:54:51.853Z,1009.77
2019-06-07T01:55:00.690Z,1009.81
2019-06-07T01:55:41.200Z,1009.85
2019-06-07T01:56:22.593Z,1009.83
2019-06-07T01:57:02.327Z,1009.91
2019-06-07T01:57:47.831Z,1009.94
2019-06-07T01:58:26.452Z,1009.95
2019-06-07T01:59:04.036Z,1009.98
2019-06-07T01:59:44.607Z,1009.96
2019-06-07T02:00:26.479Z,1010
2019-06-07T02:01:05.753Z,1010.01
2019-06-07T02:01:46.324Z,1010.06
2019-06-07T02:02:29.976Z,1010.07
2019-06-07T02:03:07.468Z,1010.16
2019-06-07T02:03:48.019Z,1010.12
2019-06-07T02:04:32.022Z,1010.12
2019-06-07T02:05:09.164Z,1010.14
2019-06-07T02:05:49.731Z,1010.14
2019-06-07T02:06:32.080Z,1010.18
2019-06-07T02:07:10.860Z,1010.17
2019-06-07T02:07:51.594Z,1010.17
2019-06-07T02:08:34.145Z,1010.17
2019-06-07T02:09:12.597Z,1010.19
2019-06-07T02:09:53.193Z,1010.22
2019-06-07T02:10:33.883Z,1010.2
2019-06-07T02:11:14.329Z,1010.25
2019-06-07T02:11:54.906Z,1010.18
2019-06-07T02:12:42.674Z,1010.18
2019-06-07T02:13:16.038Z,1010.13
2019-06-07T02:13:56.595Z,1010.17
2019-06-07T02:14:37.162Z,1010.17
2019-06-07T02:15:21.012Z,1010.17
2019-06-07T02:15:58.312Z,1010.16
2019-06-07T02:16:38.879Z,1010.22
2019-06-07T02:17:20.239Z,1010.25
2019-06-07T02:18:00.042Z,1010.26
2019-06-07T02:19:00.503Z,1010.24
2019-06-07T02:19:21.981Z,1010.27
2019-06-07T02:20:01.780Z,1010.25
2019-06-07T02:20:42.341Z,1010.28
2019-06-07T02:21:24.599Z,1010.31
2019-06-07T02:22:03.518Z,1010.31
2019-06-07T02:22:44.064Z,1010.32
2019-06-07T02:23:28.187Z,1010.3
2019-06-07T02:24:05.208Z,1010.35
2019-06-07T02:24:45.775Z,1010.34
2019-06-07T02:27:45.151Z,1010.33
2019-06-07T02:28:36.430Z,1010.33
2019-06-07T02:29:06.276Z,1010.38
2019-06-07T02:29:46.807Z,1010.36
2019-06-07T02:30:50.343Z,1010.36
2019-06-07T02:31:07.934Z,1010.27
2019-06-07T02:31:48.485Z,1010.27
2019-06-07T02:32:31.629Z,1010.25
2019-06-07T02:33:09.597Z,1010.23
2019-06-07T02:33:50.164Z,1010.23
2019-06-07T02:34:35.755Z,1010.22
2019-06-07T02:35:11.282Z,1010.23
2019-06-07T02:35:51.841Z,1010.21
2019-06-07T02:36:38.648Z,1010.18
2019-06-07T02:37:12.983Z,1010.24
2019-06-07T02:37:53.545Z,1010.2
2019-06-07T02:38:37.119Z,1010.19
2019-06-07T02:39:15.940Z,1010.21
2019-06-07T02:39:55.230Z,1010.22
2019-06-07T02:40:37.343Z,1010.24
2019-06-07T02:41:16.353Z,1010.21
2019-06-07T02:41:56.909Z,1010.21
2019-06-07T02:42:41.808Z,1010.18
2019-06-07T02:43:18.090Z,1010.19
2019-06-07T02:43:58.636Z,1010.17
2019-06-07T02:44:40.298Z,1010.18
2019-06-07T02:45:19.761Z,1010.18
2019-06-07T02:46:23.796Z,1010.14
2019-06-07T02:46:47.158Z,1010.11
2019-06-07T02:47:22.717Z,1010.15
2019-06-07T02:48:02.152Z,1010.14
2019-06-07T02:48:42.707Z,1010.12
2019-06-07T02:49:25.045Z,1010.11
2019-06-07T02:50:03.841Z,1010.18
2019-06-07T02:50:44.405Z,1010.14
2019-06-07T02:51:27.932Z,1010.08
2019-06-07T02:52:05.555Z,1010.08
2019-06-07T02:52:46.128Z,1010.08
2019-06-07T02:53:29.664Z,1010.16
2019-06-07T02:54:07.792Z,1010.15
2019-06-07T02:54:48.361Z,1010.16
2019-06-07T02:55:33.244Z,1010.23
2019-06-07T02:56:35.735Z,1010.21
2019-06-07T02:56:57.678Z,1010.23
2019-06-07T02:57:36.678Z,1010.22
2019-06-07T02:58:11.169Z,1010.18
2019-06-07T02:58:51.743Z,1010.19
2019-06-07T02:59:54.228Z,1010.18
2019-06-07T03:00:40.351Z,1010.16
2019-06-07T03:01:08.253Z,1010.17
2019-06-07T03:01:39.276Z,1010.18
2019-06-07T03:02:14.555Z,1010.16
2019-06-07T03:02:55.111Z,1010.2
2019-06-07T03:03:39.352Z,1010.2
2019-06-07T03:04:16.990Z,1010.2
2019-06-07T03:04:56.870Z,1010.25
2019-06-07T03:05:40.746Z,1010.25
2019-06-07T03:06:17.977Z,1010.31
2019-06-07T03:06:58.537Z,1010.29
2019-06-07T03:07:44.531Z,1010.37
2019-06-07T03:08:19.741Z,1010.38
2019-06-07T03:09:00.310Z,1010.42
2019-06-07T03:09:40.871Z,1010.44
2019-06-07T03:10:21.433Z,1010.46
2019-06-07T03:11:01.991Z,1010.49
2019-06-07T03:11:42.595Z,1010.46
2019-06-07T03:12:23.121Z,1010.53
2019-06-07T03:13:03.729Z,1010.53
2019-06-07T03:13:44.294Z,1010.56
2019-06-07T03:14:25.982Z,1010.55
2019-06-07T03:15:05.673Z,1010.53
2019-06-07T03:15:49.915Z,1010.59
2019-06-07T03:16:26.798Z,1010.6
2019-06-07T03:17:07.350Z,1010.57
2019-06-07T03:17:47.928Z,1010.59
2019-06-07T03:18:29.051Z,1010.62
2019-06-07T03:19:09.043Z,1010.61
2019-06-07T03:19:49.614Z,1010.61
2019-06-07T03:20:32.699Z,1010.57
2019-06-07T03:21:10.755Z,1010.56
2019-06-07T03:21:51.319Z,1010.55
2019-06-07T03:22:34.480Z,1010.52
2019-06-07T03:23:12.459Z,1010.53
2019-06-07T03:23:53.018Z,1010.55
2019-06-07T03:24:36.124Z,1010.49
2019-06-07T03:25:14.133Z,1010.52
2019-06-07T03:25:54.700Z,1010.46
2019-06-07T03:27:11.663Z,1010.49
2019-06-07T03:27:35.791Z,1010.47
2019-06-07T03:27:56.387Z,1010.45
2019-06-07T03:28:37.874Z,1010.4
2019-06-07T03:29:17.512Z,1010.4
2019-06-07T03:29:58.131Z,1010.43
2019-06-07T03:30:51.882Z,1010.45
2019-06-07T03:31:19.296Z,1010.47
2019-06-07T03:31:59.870Z,1010.51
2019-06-07T03:32:47.055Z,1010.53
2019-06-07T03:33:20.996Z,1010.52
2019-06-07T03:34:01.561Z,1010.53
2019-06-07T03:34:43.640Z,1010.56
2019-06-07T03:35:22.680Z,1010.55
2019-06-07T03:36:22.622Z,1010.53
2019-06-07T03:36:43.844Z,1010.53
2019-06-07T03:37:24.407Z,1010.56
2019-06-07T03:38:05.019Z,1010.58
2019-06-07T03:38:45.543Z,1010.58
2019-06-07T03:39:28.345Z,1010.53
2019-06-07T03:40:06.664Z,1010.56
2019-06-07T03:40:47.222Z,1010.58
2019-06-07T03:41:29.166Z,1010.51
2019-06-07T03:42:08.640Z,1010.53
2019-06-07T03:42:48.911Z,1010.54
2019-06-07T03:43:30.450Z,1010.6
2019-06-07T03:44:10.058Z,1010.6
2019-06-07T03:44:50.668Z,1010.65
2019-06-07T03:45:32.984Z,1010.62
2019-06-07T03:46:11.769Z,1010.64
2019-06-07T03:46:52.335Z,1010.65
2019-06-07T03:47:36.380Z,1010.67
2019-06-07T03:48:13.446Z,1010.69
2019-06-07T03:48:54.009Z,1010.72
2019-06-07T03:49:36.375Z,1010.73
2019-06-07T03:50:15.129Z,1010.77
2019-06-07T03:51:04.057Z,1010.73
2019-06-07T03:51:39.590Z,1010.85
2019-06-07T03:52:16.845Z,1010.76
2019-06-07T03:52:57.395Z,1010.78
2019-06-07T03:53:40.716Z,1010.81
2019-06-07T03:54:18.562Z,1010.84
2019-06-07T03:54:59.124Z,1010.81
2019-06-07T03:55:41.230Z,1010.85
2019-06-07T03:56:20.300Z,1010.82
2019-06-07T03:57:00.875Z,1010.85
2019-06-07T03:58:30.499Z,1010.88
2019-06-07T03:58:31.751Z,1010.82
2019-06-07T03:59:02.575Z,1010.8
2019-06-07T03:59:43.123Z,1010.83
2019-06-07T04:00:23.686Z,1010.8
2019-06-07T04:01:04.244Z,1010.8
2019-06-07T04:01:44.810Z,1010.81
2019-06-07T04:02:25.375Z,1010.79
2019-06-07T04:03:05.937Z,1010.79
2019-06-07T04:03:51.556Z,1010.75
2019-06-07T04:04:27.346Z,1010.73
2019-06-07T04:05:07.616Z,1010.78
2019-06-07T04:05:48.228Z,1010.77
2019-06-07T04:06:30.993Z,1010.78
2019-06-07T04:07:09.388Z,1010.83
2019-06-07T04:07:49.961Z,1010.82
2019-06-07T04:08:31.355Z,1010.88
2019-06-07T04:09:11.122Z,1010.85
2019-06-07T04:09:51.711Z,1010.86
2019-06-07T04:10:48.146Z,1010.85
2019-06-07T04:11:12.826Z,1010.83
2019-06-07T04:11:53.383Z,1010.83
2019-06-07T04:12:35.436Z,1010.83
2019-06-07T04:13:14.542Z,1010.85
2019-06-07T04:13:55.400Z,1010.83
2019-06-07T04:14:38.307Z,1010.85
2019-06-07T04:15:16.517Z,1010.83
2019-06-07T04:15:57.098Z,1010.84
2019-06-07T04:16:41.585Z,1010.85
2019-06-07T04:17:18.237Z,1010.83
2019-06-07T04:18:02.141Z,1010.87
2019-06-07T04:18:40.678Z,1010.87
2019-06-07T04:19:19.931Z,1010.87
2019-06-07T04:20:00.499Z,1010.83
2019-06-07T04:20:41.505Z,1010.84
2019-06-07T04:21:21.618Z,1010.87
2019-06-07T04:22:02.191Z,1010.82
2019-06-07T04:22:42.940Z,1010.82
2019-06-07T04:23:27.540Z,1010.84
2019-06-07T04:24:03.911Z,1010.84
2019-06-07T04:24:44.477Z,1010.89
2019-06-07T04:25:25.045Z,1010.9
2019-06-07T04:26:05.608Z,1010.91
2019-06-07T04:26:46.763Z,1010.92
2019-06-07T04:27:26.739Z,1010.95
2019-06-07T04:28:07.304Z,1010.93
2019-06-07T04:29:31.410Z,1010.94
2019-06-07T04:29:36.840Z,1010.92
2019-06-07T04:30:09.021Z,1010.93
2019-06-07T04:30:49.564Z,1010.94
2019-06-07T04:31:32.151Z,1010.99
2019-06-07T04:32:10.699Z,1010.95
2019-06-07T04:32:51.286Z,1010.99
2019-06-07T04:33:34.045Z,1010.96
2019-06-07T04:34:12.403Z,1010.93
2019-06-07T04:34:52.969Z,1010.87
2019-06-07T04:35:34.310Z,1010.92
2019-06-07T04:36:14.118Z,1010.95
2019-06-07T04:36:58.890Z,1010.92
2019-06-07T04:37:36.588Z,1010.9
2019-06-07T04:38:15.876Z,1010.86
2019-06-07T04:38:56.440Z,1010.9
2019-06-07T04:39:41.147Z,1010.86
2019-06-07T04:40:17.526Z,1010.86
2019-06-07T04:40:58.099Z,1010.81
2019-06-07T04:41:40.767Z,1010.83
2019-06-07T04:42:19.205Z,1010.8
2019-06-07T04:42:59.756Z,1010.78
2019-06-07T04:43:41.124Z,1010.77
2019-06-07T04:44:20.896Z,1010.76
2019-06-07T04:45:01.470Z,1010.77
2019-06-07T04:45:50.587Z,1010.76
2019-06-07T04:46:22.595Z,1010.71
2019-06-07T04:47:03.160Z,1010.72
2019-06-07T04:47:43.717Z,1010.76
2019-06-07T04:48:24.337Z,1010.72
2019-06-07T04:49:04.900Z,1010.73
2019-06-07T04:49:45.459Z,1010.8
2019-06-07T04:50:26.019Z,1010.78
2019-06-07T04:51:06.624Z,1010.78
2019-06-07T04:51:47.185Z,1010.74
2019-06-07T04:52:29.723Z,1010.75
2019-06-07T04:53:08.382Z,1010.79
2019-06-07T04:53:48.920Z,1010.75
2019-06-07T04:54:30.975Z,1010.77
2019-06-07T04:55:10.049Z,1010.82
2019-06-07T04:55:50.607Z,1010.84
2019-06-07T04:56:33.630Z,1010.83
2019-06-07T04:57:11.785Z,1010.83
2019-06-07T04:57:52.289Z,1010.82
2019-06-07T04:58:33.350Z,1010.83
2019-06-07T04:59:13.450Z,1010.82
2019-06-07T05:00:11.673Z,1010.78
2019-06-07T05:00:49.530Z,1010.78
2019-06-07T05:01:26.639Z,1010.75
2019-06-07T05:01:55.704Z,1010.73
2019-06-07T05:02:38.530Z,1010.73
2019-06-07T05:03:16.845Z,1010.73
2019-06-07T05:03:57.427Z,1010.74
2019-06-07T05:04:39.685Z,1010.79
2019-06-07T05:05:18.565Z,1010.77
2019-06-07T05:05:59.133Z,1010.72
2019-06-07T05:06:42.458Z,1010.74
2019-06-07T05:07:21.367Z,1010.75
2019-06-07T05:08:07.347Z,1010.75
2019-06-07T05:08:43.833Z,1010.77
2019-06-07T05:09:23.075Z,1010.8
2019-06-07T05:10:03.645Z,1010.78
2019-06-07T05:10:44.319Z,1010.81
2019-06-07T05:11:24.844Z,1010.82
2019-06-07T05:12:05.420Z,1010.86
2019-06-07T05:12:45.993Z,1010.87
2019-06-07T05:13:26.554Z,1010.86
2019-06-07T05:14:07.491Z,1010.81
2019-06-07T05:14:48.054Z,1010.82
2019-06-07T05:15:29.570Z,1010.86
2019-06-07T05:16:09.247Z,1010.82
2019-06-07T05:16:49.814Z,1010.84
2019-06-07T05:17:31.658Z,1010.79
2019-06-07T05:18:10.935Z,1010.83
2019-06-07T05:18:51.495Z,1010.78
2019-06-07T05:19:35.129Z,1010.79
2019-06-07T05:20:12.662Z,1010.8
2019-06-07T05:20:53.243Z,1010.84
2019-06-07T05:21:52.737Z,1010.78
2019-06-07T05:22:14.383Z,1010.81
2019-06-07T05:22:54.945Z,1010.83
2019-06-07T05:24:05.194Z,1010.88
2019-06-07T05:24:16.078Z,1010.86
2019-06-07T05:24:56.644Z,1010.88
2019-06-07T05:25:39.113Z,1010.86
2019-06-07T05:26:17.782Z,1010.92
2019-06-07T05:26:58.348Z,1010.95
2019-06-07T05:27:42.274Z,1010.97
2019-06-07T05:28:19.544Z,1010.96
2019-06-07T05:29:00.109Z,1010.92
2019-06-07T05:29:43.455Z,1011
2019-06-07T05:30:58.350Z,1011
2019-06-07T05:31:07.407Z,1011.01
2019-06-07T05:31:45.300Z,1011.05
2019-06-07T05:32:22.986Z,1011.08
2019-06-07T05:33:03.562Z,1011.09
2019-06-07T05:33:44.136Z,1011.09
2019-06-07T05:34:24.693Z,1011.17
2019-06-07T05:35:05.265Z,1011.19
2019-06-07T05:35:45.846Z,1011.23
2019-06-07T05:36:26.412Z,1011.3
2019-06-07T05:37:11.841Z,1011.34
2019-06-07T05:37:47.536Z,1011.38
2019-06-07T05:38:28.102Z,1011.42
2019-06-07T05:39:08.701Z,1011.42
2019-06-07T05:39:49.286Z,1011.4
2019-06-07T05:40:32.468Z,1011.49
2019-06-07T05:41:10.448Z,1011.51
2019-06-07T05:41:51.136Z,1011.64
2019-06-07T05:42:32.096Z,1011.61
2019-06-07T05:43:12.181Z,1011.73
2019-06-07T05:44:11.516Z,1011.78
2019-06-07T05:44:34.090Z,1011.79
2019-06-07T05:45:13.882Z,1011.83
2019-06-07T05:45:54.450Z,1011.87
2019-06-07T05:46:38.476Z,1011.94
2019-06-07T05:47:15.608Z,1011.99
2019-06-07T05:47:56.175Z,1012.03
2019-06-07T05:48:37.211Z,1012.01
2019-06-07T05:49:17.333Z,1012.01
2019-06-07T05:49:58.009Z,1012.17
2019-06-07T05:50:47.873Z,1012.25
2019-06-07T05:51:19.065Z,1012.31
2019-06-07T05:51:59.638Z,1012.33
2019-06-07T05:52:44.296Z,1012.35
2019-06-07T05:53:20.805Z,1012.31
2019-06-07T05:54:01.365Z,1012.36
2019-06-07T05:54:43.070Z,1012.52
2019-06-07T05:55:22.512Z,1012.56
2019-06-07T05:56:03.360Z,1012.51
2019-06-07T05:56:45.310Z,1012.35
2019-06-07T05:57:24.264Z,1012.3
2019-06-07T05:58:04.842Z,1012.29
2019-06-07T05:58:45.401Z,1012.26
2019-06-07T05:59:26.061Z,1012.25
2019-06-07T06:00:06.543Z,1012.29
2019-06-07T06:00:47.641Z,1012.23
2019-06-07T06:01:42.619Z,1012.16
2019-06-07T06:02:21.671Z,1012.16
2019-06-07T06:03:03.582Z,1012.18
2019-06-07T06:03:29.447Z,1012.17
2019-06-07T06:04:10.034Z,1012.09
2019-06-07T06:04:50.652Z,1012.06
2019-06-07T06:05:35.809Z,1012
2019-06-07T06:06:11.760Z,1011.96
2019-06-07T06:06:52.343Z,1011.92
2019-06-07T06:07:35.613Z,1011.84
2019-06-07T06:08:13.499Z,1011.75
2019-06-07T06:09:12.784Z,1011.67
2019-06-07T06:09:35.270Z,1011.7
2019-06-07T06:10:15.197Z,1011.71
2019-06-07T06:10:55.788Z,1011.71
2019-06-07T06:11:49.085Z,1011.67
2019-06-07T06:12:33.796Z,1011.67
2019-06-07T06:12:57.521Z,1011.66
2019-06-07T06:13:49.298Z,1011.65
2019-06-07T06:14:18.639Z,1011.7
2019-06-07T06:14:59.233Z,1011.68
2019-06-07T06:15:50.631Z,1011.66
2019-06-07T06:16:20.432Z,1011.68
2019-06-07T06:17:01.012Z,1011.65
2019-06-07T06:17:45.878Z,1011.69
2019-06-07T06:18:22.144Z,1011.68
2019-06-07T06:19:02.757Z,1011.72
2019-06-07T06:19:46.154Z,1011.76
2019-06-07T06:20:23.936Z,1011.83
2019-06-07T06:21:17.194Z,1011.81
2019-06-07T06:24:03.367Z,1011.94
2019-06-07T06:25:16.318Z,1011.92
2019-06-07T06:25:33.730Z,1011.86
2019-06-07T06:26:05.114Z,1011.82
2019-06-07T06:26:51.061Z,1011.84
2019-06-07T06:28:03.048Z,1011.82
2019-06-07T06:28:11.911Z,1011.83
2019-06-07T06:28:49.617Z,1011.82
2019-06-07T06:29:28.013Z,1011.82
2019-06-07T06:30:08.589Z,1011.8
2019-06-07T06:30:49.942Z,1011.85
2019-06-07T06:31:29.762Z,1011.86
2019-06-07T06:32:57.689Z,1011.84
2019-06-07T06:33:34.641Z,1011.9
2019-06-07T06:34:12.147Z,1011.84
2019-06-07T06:34:53.823Z,1011.78
2019-06-07T06:35:33.306Z,1011.82
2019-06-07T06:36:13.876Z,1011.76
2019-06-07T06:36:54.450Z,1011.78
2019-06-07T06:37:35.033Z,1011.75
2019-06-07T06:38:15.613Z,1011.74
2019-06-07T06:38:56.169Z,1011.69
2019-06-07T06:39:37.100Z,1011.61
2019-06-07T06:40:17.321Z,1011.57
2019-06-07T06:41:14.201Z,1011.52
2019-06-07T06:41:49.275Z,1011.48
2019-06-07T06:42:19.076Z,1011.47
2019-06-07T06:42:59.641Z,1011.45
2019-06-07T06:43:42.140Z,1011.4
2019-06-07T06:44:20.790Z,1011.42
2019-06-07T06:45:01.366Z,1011.4
2019-06-07T06:45:42.811Z,1011.41
2019-06-07T06:46:37.893Z,1011.39
2019-06-07T06:47:03.075Z,1011.4
2019-06-07T06:47:47.195Z,1011.39
2019-06-07T06:48:24.223Z,1011.36
2019-06-07T06:49:04.812Z,1011.4
2019-06-07T06:49:46.733Z,1011.43
2019-06-07T06:50:25.958Z,1011.51
2019-06-07T06:51:06.551Z,1011.5
2019-06-07T06:51:50.689Z,1011.44
2019-06-07T06:52:27.702Z,1011.44
2019-06-07T06:53:08.274Z,1011.4
2019-06-07T06:53:52.482Z,1011.41
2019-06-07T06:54:40.512Z,1011.32
2019-06-07T06:55:11.307Z,1011.34
2019-06-07T06:55:51.881Z,1011.35
2019-06-07T06:56:32.447Z,1011.31
2019-06-07T06:57:19.373Z,1011.32
2019-06-07T06:57:53.591Z,1011.33
2019-06-07T06:59:12.817Z,1011.31
2019-06-07T06:59:37.832Z,1011.32
2019-06-07T06:59:55.352Z,1011.33
2019-06-07T07:00:44.414Z,1011.29
2019-06-07T07:01:16.452Z,1011.3
2019-06-07T07:01:57.033Z,1011.29
2019-06-07T07:03:21.070Z,1011.33
2019-06-07T07:03:48.072Z,1011.33
2019-06-07T07:04:10.998Z,1011.35
2019-06-07T07:04:41.788Z,1011.31
2019-06-07T07:05:19.890Z,1011.31
2019-06-07T07:06:24.510Z,1011.32
2019-06-07T07:06:41.450Z,1011.31
2019-06-07T07:07:21.613Z,1011.35
2019-06-07T07:08:02.336Z,1011.33
2019-06-07T07:08:43.526Z,1011.44
2019-06-07T07:09:23.408Z,1011.53
2019-06-07T07:10:04.016Z,1011.56
2019-06-07T07:10:45.886Z,1011.54
2019-06-07T07:11:25.141Z,1011.45
2019-06-07T07:12:11.640Z,1011.4
2019-06-07T07:12:47.843Z,1011.36
2019-06-07T07:13:26.855Z,1011.37
2019-06-07T07:14:07.659Z,1011.34
2019-06-07T07:14:50.140Z,1011.35
2019-06-07T07:15:28.846Z,1011.34
2019-06-07T07:16:09.508Z,1011.35
2019-06-07T07:16:54.372Z,1011.36
2019-06-07T07:17:47.481Z,1011.39
2019-06-07T07:18:11.160Z,1011.43
2019-06-07T07:18:54.502Z,1011.51
2019-06-07T07:19:32.314Z,1011.64
2019-06-07T07:20:12.862Z,1011.69
2019-06-07T07:20:56.744Z,1011.69
2019-06-07T07:21:34.004Z,1011.64
2019-06-07T07:22:14.580Z,1011.58
2019-06-07T07:22:57.064Z,1011.53
2019-06-07T07:23:35.818Z,1011.49
2019-06-07T07:24:21.386Z,1011.44
2019-06-07T07:24:56.843Z,1011.39
2019-06-07T07:25:37.423Z,1011.34
2019-06-07T07:26:18.076Z,1011.27
2019-06-07T07:26:58.679Z,1011.26
2019-06-07T07:27:39.152Z,1011.23
2019-06-07T07:28:19.727Z,1011.23
2019-06-07T07:29:00.338Z,1011.24
2019-06-07T07:29:43.653Z,1011.23
2019-06-07T07:30:37.537Z,1011.23
2019-06-07T07:31:02.063Z,1011.24
2019-06-07T07:31:43.002Z,1011.26
2019-06-07T07:32:23.223Z,1011.27
2019-06-07T07:33:05.592Z,1011.22
2019-06-07T07:34:23.605Z,1011.26
2019-06-07T07:34:34.340Z,1011.3
2019-06-07T07:35:05.599Z,1011.24
2019-06-07T07:36:05.631Z,1011.25
2019-06-07T07:36:38.546Z,1011.25
2019-06-07T07:37:07.314Z,1011.27
2019-06-07T07:37:53.487Z,1011.27
2019-06-07T07:38:28.451Z,1011.27
2019-06-07T07:39:09.028Z,1011.27
2019-06-07T07:39:52.969Z,1011.27
2019-06-07T07:41:15.381Z,1011.29
2019-06-07T07:42:13.569Z,1011.32
2019-06-07T07:42:31.899Z,1011.35
2019-06-07T07:43:12.461Z,1011.34
2019-06-07T07:44:04.677Z,1011.33
2019-06-07T07:44:33.610Z,1011.37
2019-06-07T07:45:14.178Z,1011.35
2019-06-07T07:45:58.687Z,1011.35
2019-06-07T07:46:35.568Z,1011.35
2019-06-07T07:47:15.917Z,1011.39
2019-06-07T07:48:13.213Z,1011.41
2019-06-07T07:48:37.063Z,1011.34
2019-06-07T07:49:17.633Z,1011.33
2019-06-07T07:49:59.021Z,1011.34
2019-06-07T07:50:38.775Z,1011.33
2019-06-07T07:51:19.348Z,1011.33
2019-06-07T07:51:59.923Z,1011.33
2019-06-07T07:52:40.498Z,1011.3
2019-06-07T07:53:21.315Z,1011.25
2019-06-07T07:54:10.413Z,1011.27
2019-06-07T07:54:42.249Z,1011.2
2019-06-07T07:55:22.837Z,1011.22
2019-06-07T07:56:03.657Z,1011.27
2019-06-07T07:56:45.279Z,1011.2
2019-06-07T07:57:24.564Z,1011.15
2019-06-07T07:58:05.181Z,1011.21
2019-06-07T07:58:49.757Z,1011.2
2019-06-07T07:59:41.012Z,1011.21
2019-06-07T08:00:48.450Z,1011.21
2019-06-07T08:00:56.794Z,1011.21
2019-06-07T08:01:28.032Z,1011.18
2019-06-07T08:02:08.614Z,1011.2
2019-06-07T08:02:52.964Z,1011.17
2019-06-07T08:03:29.758Z,1011.17
2019-06-07T08:04:10.333Z,1011.17
2019-06-07T08:05:16.300Z,1011.19
2019-06-07T08:05:42.263Z,1011.15
2019-06-07T08:06:12.126Z,1011.11
2019-06-07T08:06:54.675Z,1011.19
2019-06-07T08:07:33.389Z,1011.2
2019-06-07T08:08:14.445Z,1011.2
2019-06-07T08:08:57.006Z,1011.16
2019-06-07T08:09:36.533Z,1011.12
2019-06-07T08:13:01.694Z,1011.11
2019-06-07T08:13:31.683Z,1011.11
2019-06-07T08:14:12.350Z,1011.09
2019-06-07T08:14:57.538Z,1011.09
2019-06-07T08:15:34.714Z,1011.07
2019-06-07T08:16:18.648Z,1011.16
2019-06-07T08:16:57.922Z,1011.11
2019-06-07T08:17:38.006Z,1011.14
2019-06-07T08:18:18.660Z,1011.15
2019-06-07T08:19:03.667Z,1011.17
2019-06-07T08:19:41.672Z,1011.15
2019-06-07T08:20:22.554Z,1011.16
2019-06-07T08:21:21.060Z,1011.21
2019-06-07T08:21:43.928Z,1011.19
2019-06-07T08:22:24.489Z,1011.2
2019-06-07T08:23:05.050Z,1011.21
2019-06-07T08:23:47.544Z,1011.22